createdAt,value
2018-07-25T00:01:31.033Z,22.84
2018-07-25T00:03:59.761Z,22.66
2018-07-25T00:06:28.473Z,22.60
2018-07-25T00:08:57.175Z,22.83
2018-07-25T00:11:25.880Z,22.90
2018-07-25T00:13:54.610Z,22.83
2018-07-25T00:16:23.356Z,22.64
2018-07-25T00:18:52.049Z,22.76
2018-07-25T00:21:20.817Z,22.87
2018-07-25T00:23:49.469Z,22.80
2018-07-25T00:26:18.220Z,22.70
2018-07-25T00:28:46.942Z,22.69
2018-07-25T00:31:15.654Z,22.56
2018-07-25T00:33:44.460Z,22.55
2018-07-25T00:36:13.231Z,22.29
2018-07-25T00:38:41.981Z,22.35
2018-07-25T00:41:10.715Z,22.35
2018-07-25T00:43:39.503Z,22.17
2018-07-25T00:46:08.198Z,22.08
2018-07-25T00:48:36.878Z,22.04
2018-07-25T00:51:05.564Z,21.92
2018-07-25T00:53:34.289Z,21.97
2018-07-25T00:56:03.151Z,22.02
2018-07-25T00:58:31.865Z,22.04
2018-07-25T01:01:00.640Z,21.88
2018-07-25T01:03:29.373Z,21.82
2018-07-25T01:05:58.094Z,21.88
2018-07-25T01:08:26.777Z,21.96
2018-07-25T01:10:55.467Z,21.98
2018-07-25T01:13:24.273Z,21.99
2018-07-25T01:15:52.936Z,21.87
2018-07-25T01:18:21.724Z,21.93
2018-07-25T01:20:50.424Z,21.90
2018-07-25T01:23:19.197Z,22.04
2018-07-25T01:25:47.940Z,21.99
2018-07-25T01:28:16.642Z,21.91
2018-07-25T01:30:45.360Z,21.51
2018-07-25T01:33:14.043Z,21.44
2018-07-25T01:35:42.852Z,21.55
2018-07-25T01:38:11.537Z,21.63
2018-07-25T01:40:40.217Z,21.74
2018-07-25T01:43:08.944Z,21.81
2018-07-25T01:45:37.696Z,21.53
2018-07-25T01:48:06.414Z,21.39
2018-07-25T01:50:35.125Z,21.23
2018-07-25T01:53:03.873Z,21.15
2018-07-25T01:55:32.624Z,21.20
2018-07-25T01:58:01.310Z,21.23
2018-07-25T02:00:30.028Z,21.35
2018-07-25T02:02:58.731Z,21.51
2018-07-25T02:05:27.391Z,21.45
2018-07-25T02:07:56.040Z,21.31
2018-07-25T02:10:24.801Z,21.35
2018-07-25T02:12:53.453Z,21.45
2018-07-25T02:15:22.216Z,21.52
2018-07-25T02:17:50.926Z,21.38
2018-07-25T02:20:19.740Z,21.31
2018-07-25T02:22:48.465Z,21.55
2018-07-25T02:25:18.095Z,21.67
2018-07-25T02:27:46.803Z,21.44
2018-07-25T02:30:15.561Z,21.10
2018-07-25T02:32:44.306Z,21.11
2018-07-25T02:35:13.046Z,21.17
2018-07-25T02:37:41.768Z,21.13
2018-07-25T02:40:10.494Z,21.21
2018-07-25T02:42:39.226Z,21.23
2018-07-25T02:45:08.028Z,20.91
2018-07-25T02:47:36.792Z,20.98
2018-07-25T02:50:05.643Z,21.03
2018-07-25T02:52:34.360Z,21.09
2018-07-25T02:55:03.180Z,21.10
2018-07-25T02:57:31.911Z,21.28
2018-07-25T03:00:00.591Z,21.32
2018-07-25T03:02:29.371Z,21.60
2018-07-25T03:04:58.003Z,21.77
2018-07-25T03:07:26.756Z,21.94
2018-07-25T03:09:55.482Z,22.01
2018-07-25T03:12:24.234Z,21.95
2018-07-25T03:14:52.970Z,21.68
2018-07-25T03:17:21.725Z,21.68
2018-07-25T03:19:50.451Z,21.78
2018-07-25T03:22:19.228Z,21.75
2018-07-25T03:24:47.963Z,21.69
2018-07-25T03:27:16.664Z,21.67
2018-07-25T03:29:45.411Z,21.60
2018-07-25T03:32:14.078Z,21.51
2018-07-25T03:34:42.803Z,21.38
2018-07-25T03:37:11.526Z,21.22
2018-07-25T03:39:40.175Z,21.15
2018-07-25T03:42:09.067Z,21.03
2018-07-25T03:44:37.777Z,21.06
2018-07-25T03:47:06.950Z,21.13
2018-07-25T03:49:35.680Z,21.16
2018-07-25T03:52:04.369Z,21.04
2018-07-25T03:54:33.858Z,21.03
2018-07-25T03:57:02.619Z,21.19
2018-07-25T03:59:31.524Z,21.20
2018-07-25T04:02:00.271Z,21.22
2018-07-25T04:04:29.043Z,21.09
2018-07-25T04:06:57.758Z,21.13
2018-07-25T04:09:26.503Z,21.15
2018-07-25T04:11:55.209Z,21.15
2018-07-25T04:14:23.892Z,21.07
2018-07-25T04:16:52.608Z,20.99
2018-07-25T04:19:21.315Z,21.18
2018-07-25T04:21:50.084Z,21.17
2018-07-25T04:24:18.762Z,21.14
2018-07-25T04:26:47.475Z,21.30
2018-07-25T04:29:16.142Z,21.38
2018-07-25T04:31:44.823Z,21.58
2018-07-25T04:34:13.473Z,21.60
2018-07-25T04:36:42.221Z,21.61
2018-07-25T04:39:12.083Z,21.58
2018-07-25T04:41:41.077Z,21.63
2018-07-25T04:44:10.409Z,21.65
2018-07-25T04:46:39.200Z,21.77
2018-07-25T04:49:07.876Z,21.99
2018-07-25T04:51:36.619Z,22.48
2018-07-25T04:54:05.349Z,22.58
2018-07-25T04:56:34.124Z,22.50
2018-07-25T04:59:02.803Z,22.51
2018-07-25T05:01:31.533Z,22.53
2018-07-25T05:04:00.195Z,22.56
2018-07-25T05:06:28.914Z,22.65
2018-07-25T05:08:57.668Z,22.64
2018-07-25T05:11:26.357Z,22.78
2018-07-25T05:13:55.035Z,22.86
2018-07-25T05:16:23.814Z,22.93
2018-07-25T05:18:52.533Z,22.99
2018-07-25T05:21:21.319Z,23.07
2018-07-25T05:23:50.031Z,23.15
2018-07-25T05:26:18.704Z,23.26
2018-07-25T05:28:47.350Z,23.43
2018-07-25T05:31:16.148Z,23.39
2018-07-25T05:33:44.956Z,23.43
2018-07-25T05:36:13.758Z,23.55
2018-07-25T05:38:42.461Z,23.68
2018-07-25T05:41:11.353Z,23.91
2018-07-25T05:43:40.061Z,23.97
2018-07-25T05:46:08.999Z,24.08
2018-07-25T05:48:37.844Z,24.17
2018-07-25T05:51:06.710Z,24.25
2018-07-25T05:53:35.592Z,24.24
2018-07-25T05:56:04.333Z,24.32
2018-07-25T05:58:32.991Z,24.46
2018-07-25T06:01:01.962Z,24.46
2018-07-25T06:03:30.751Z,24.53
2018-07-25T06:05:59.373Z,24.66
2018-07-25T06:08:28.039Z,24.63
2018-07-25T06:10:56.750Z,24.75
2018-07-25T06:13:25.469Z,24.85
2018-07-25T06:15:54.191Z,24.90
2018-07-25T06:18:22.907Z,24.91
2018-07-25T06:20:51.615Z,25.01
2018-07-25T06:23:20.387Z,25.07
2018-07-25T06:25:49.230Z,25.16
2018-07-25T06:28:17.999Z,25.22
2018-07-25T06:30:46.802Z,25.33
2018-07-25T06:33:15.552Z,25.32
2018-07-25T06:35:44.378Z,25.39
2018-07-25T06:38:13.085Z,25.44
2018-07-25T06:40:41.804Z,25.42
2018-07-25T06:43:10.534Z,25.46
2018-07-25T06:45:39.373Z,25.42
2018-07-25T06:48:08.030Z,25.48
2018-07-25T06:50:36.948Z,25.61
2018-07-25T06:53:05.627Z,25.72
2018-07-25T06:55:34.476Z,25.86
2018-07-25T06:58:03.212Z,26.30
2018-07-25T07:00:31.898Z,26.63
2018-07-25T07:03:00.574Z,26.80
2018-07-25T07:05:29.291Z,27.11
2018-07-25T07:07:58.066Z,27.50
2018-07-25T07:10:26.800Z,27.80
2018-07-25T07:12:55.601Z,28.02
2018-07-25T07:15:24.356Z,28.43
2018-07-25T07:17:53.051Z,28.34
2018-07-25T07:20:21.697Z,28.67
2018-07-25T07:22:50.453Z,28.99
2018-07-25T07:25:19.171Z,29.26
2018-07-25T07:27:47.845Z,29.21
2018-07-25T07:30:16.605Z,29.42
2018-07-25T07:32:45.786Z,29.75
2018-07-25T07:35:14.540Z,30.03
2018-07-25T07:37:43.239Z,29.95
2018-07-25T07:40:11.996Z,29.76
2018-07-25T07:42:40.699Z,29.94
2018-07-25T07:45:09.875Z,30.16
2018-07-25T07:47:38.743Z,29.95
2018-07-25T07:50:07.410Z,30.27
2018-07-25T07:52:37.136Z,30.52
2018-07-25T07:55:06.259Z,30.61
2018-07-25T07:57:34.948Z,30.45
2018-07-25T08:00:03.900Z,30.49
2018-07-25T08:02:32.629Z,30.83
2018-07-25T08:05:01.562Z,30.59
2018-07-25T08:07:30.571Z,30.36
2018-07-25T08:09:59.881Z,30.72
2018-07-25T08:12:28.770Z,30.64
2018-07-25T08:14:57.663Z,31.00
2018-07-25T08:17:26.412Z,31.19
2018-07-25T08:19:55.118Z,31.31
2018-07-25T08:22:23.921Z,31.36
2018-07-25T08:24:52.610Z,31.20
2018-07-25T08:27:21.344Z,31.52
2018-07-25T08:29:50.088Z,31.53
2018-07-25T08:32:19.336Z,31.66
2018-07-25T08:34:48.129Z,31.50
2018-07-25T08:37:16.901Z,31.75
2018-07-25T08:39:45.800Z,31.75
2018-07-25T08:42:14.512Z,31.80
2018-07-25T08:44:43.300Z,31.90
2018-07-25T08:47:12.113Z,31.72
2018-07-25T08:49:42.007Z,32.37
2018-07-25T08:52:10.752Z,32.18
2018-07-25T08:54:39.619Z,32.22
2018-07-25T08:57:08.475Z,32.47
2018-07-25T08:59:37.359Z,32.67
2018-07-25T09:02:06.158Z,32.72
2018-07-25T09:04:35.085Z,32.84
2018-07-25T09:07:03.918Z,33.38
2018-07-25T09:09:33.568Z,33.36
2018-07-25T09:12:02.397Z,33.09
2018-07-25T09:14:31.530Z,33.44
2018-07-25T09:17:00.537Z,33.63
2018-07-25T09:19:29.480Z,32.89
2018-07-25T09:21:58.343Z,32.97
2018-07-25T09:24:28.643Z,33.25
2018-07-25T09:26:58.913Z,33.13
2018-07-25T09:29:27.780Z,33.08
2018-07-25T09:31:56.549Z,33.40
2018-07-25T09:34:25.392Z,33.13
2018-07-25T09:36:54.086Z,33.62
2018-07-25T09:39:22.934Z,33.57
2018-07-25T09:41:51.603Z,33.62
2018-07-25T09:44:20.401Z,33.87
2018-07-25T09:46:49.240Z,33.80
2018-07-25T09:49:18.187Z,34.14
2018-07-25T09:51:47.488Z,34.17
2018-07-25T09:54:16.660Z,34.16
2018-07-25T09:56:45.534Z,34.61
2018-07-25T09:59:14.529Z,34.31
2018-07-25T10:01:43.290Z,34.32
2018-07-25T10:04:12.000Z,34.36
2018-07-25T10:06:40.796Z,34.46
2018-07-25T10:09:11.010Z,34.29
2018-07-25T10:11:39.849Z,34.76
2018-07-25T10:14:08.751Z,34.47
2018-07-25T10:16:37.489Z,34.40
2018-07-25T10:19:06.199Z,34.69
2018-07-25T10:21:35.241Z,34.49
2018-07-25T10:24:04.151Z,34.81
2018-07-25T10:26:32.894Z,34.89
2018-07-25T10:29:01.666Z,34.73
2018-07-25T10:31:30.395Z,34.85
2018-07-25T10:33:59.352Z,35.22
2018-07-25T10:36:27.992Z,35.10
2018-07-25T10:38:56.700Z,35.70
2018-07-25T10:41:25.376Z,35.43
2018-07-25T10:43:54.074Z,35.40
2018-07-25T10:46:22.927Z,35.70
2018-07-25T10:48:51.700Z,35.23
2018-07-25T10:51:20.628Z,34.71
2018-07-25T10:53:49.289Z,35.34
2018-07-25T10:56:17.966Z,35.04
2018-07-25T10:58:47.675Z,35.60
2018-07-25T11:01:16.497Z,35.48
2018-07-25T11:03:45.302Z,35.70
2018-07-25T11:06:14.055Z,35.40
2018-07-25T11:08:42.760Z,35.82
2018-07-25T11:11:11.456Z,35.53
2018-07-25T11:13:40.183Z,35.39
2018-07-25T11:16:08.924Z,35.22
2018-07-25T11:18:37.592Z,35.65
2018-07-25T11:21:07.016Z,35.36
2018-07-25T11:23:35.797Z,35.19
2018-07-25T11:26:04.882Z,35.50
2018-07-25T11:28:33.719Z,35.21
2018-07-25T11:31:02.476Z,35.81
2018-07-25T11:33:31.149Z,35.74
2018-07-25T11:35:59.841Z,35.14
2018-07-25T11:38:28.513Z,35.82
2018-07-25T11:40:57.245Z,35.40
2018-07-25T11:43:25.927Z,35.11
2018-07-25T11:45:55.025Z,35.07
2018-07-25T11:48:23.828Z,35.18
2018-07-25T11:50:52.555Z,35.42
2018-07-25T11:53:21.240Z,35.74
2018-07-25T11:55:50.207Z,35.19
2018-07-25T11:58:19.034Z,35.18
2018-07-25T12:00:47.683Z,34.99
2018-07-25T12:03:16.422Z,35.09
2018-07-25T12:05:45.285Z,35.34
2018-07-25T12:08:13.933Z,35.43
2018-07-25T12:10:42.717Z,35.73
2018-07-25T12:13:11.451Z,35.18
2018-07-25T12:15:40.733Z,35.60
2018-07-25T12:18:09.452Z,35.62
2018-07-25T12:20:38.452Z,35.35
2018-07-25T12:23:07.404Z,35.36
2018-07-25T12:25:37.025Z,35.42
2018-07-25T12:28:05.883Z,35.40
2018-07-25T12:30:34.618Z,35.07
2018-07-25T12:33:03.448Z,34.96
2018-07-25T12:35:32.137Z,34.84
2018-07-25T12:38:00.877Z,34.95
2018-07-25T12:40:29.591Z,35.10
2018-07-25T12:42:58.307Z,35.04
2018-07-25T12:45:27.240Z,35.11
2018-07-25T12:47:56.183Z,35.25
2018-07-25T12:50:24.885Z,35.68
2018-07-25T12:52:53.764Z,35.71
2018-07-25T12:55:22.430Z,35.34
2018-07-25T12:57:51.242Z,35.19
2018-07-25T13:00:19.902Z,35.10
2018-07-25T13:02:48.639Z,35.00
2018-07-25T13:05:17.396Z,35.51
2018-07-25T13:07:46.160Z,35.62
2018-07-25T13:10:14.944Z,35.73
2018-07-25T13:12:44.001Z,35.35
2018-07-25T13:15:12.734Z,35.22
2018-07-25T13:17:41.460Z,35.44
2018-07-25T13:20:10.435Z,35.25
2018-07-25T13:22:39.174Z,35.49
2018-07-25T13:25:08.562Z,34.86
2018-07-25T13:27:37.279Z,34.66
2018-07-25T13:30:06.335Z,34.42
2018-07-25T13:32:35.068Z,34.39
2018-07-25T13:35:03.921Z,34.75
2018-07-25T13:37:32.665Z,34.50
2018-07-25T13:40:01.436Z,34.39
2018-07-25T13:42:30.122Z,34.33
2018-07-25T13:44:58.788Z,34.42
2018-07-25T13:47:27.549Z,34.46
2018-07-25T13:49:56.385Z,34.15
2018-07-25T13:52:25.105Z,34.61
2018-07-25T13:54:54.136Z,34.36
2018-07-25T13:57:23.256Z,34.06
2018-07-25T13:59:52.206Z,34.37
2018-07-25T14:02:20.956Z,34.20
2018-07-25T14:04:49.690Z,34.45
2018-07-25T14:07:18.392Z,34.12
2018-07-25T14:09:47.120Z,34.47
2018-07-25T14:12:15.840Z,34.10
2018-07-25T14:14:44.573Z,33.87
2018-07-25T14:17:13.264Z,34.00
2018-07-25T14:19:41.982Z,34.01
2018-07-25T14:22:10.692Z,33.94
2018-07-25T14:24:39.588Z,34.14
2018-07-25T14:27:08.397Z,34.02
2018-07-25T14:29:37.155Z,33.77
2018-07-25T14:32:06.147Z,33.86
2018-07-25T14:34:34.962Z,33.52
2018-07-25T14:37:03.824Z,33.67
2018-07-25T14:39:32.542Z,33.65
2018-07-25T14:42:01.261Z,33.73
2018-07-25T14:44:29.965Z,33.58
2018-07-25T14:46:59.849Z,33.31
2018-07-25T14:49:28.505Z,33.26
2018-07-25T14:51:57.378Z,33.61
2018-07-25T14:54:26.168Z,33.40
2018-07-25T14:56:55.184Z,33.32
2018-07-25T14:59:23.833Z,33.34
2018-07-25T15:01:52.631Z,33.01
2018-07-25T15:04:21.373Z,33.01
2018-07-25T15:06:50.260Z,33.04
2018-07-25T15:09:19.262Z,32.92
2018-07-25T15:11:48.595Z,32.97
2018-07-25T15:14:17.380Z,32.92
2018-07-25T15:16:46.128Z,32.96
2018-07-25T15:19:14.812Z,32.66
2018-07-25T15:21:43.933Z,32.55
2018-07-25T15:24:12.800Z,32.52
2018-07-25T15:26:41.605Z,32.56
2018-07-25T15:29:10.495Z,32.74
2018-07-25T15:31:39.229Z,32.59
2018-07-25T15:34:08.075Z,32.37
2018-07-25T15:36:46.444Z,32.38
2018-07-25T15:39:19.412Z,32.37
2018-07-25T15:41:49.110Z,32.37
2018-07-25T15:44:18.995Z,32.37
2018-07-25T15:46:48.487Z,32.30
2018-07-25T15:49:18.410Z,32.23
2018-07-25T15:51:47.209Z,32.18
2018-07-25T15:54:16.641Z,32.18
2018-07-25T15:56:45.343Z,32.10
2018-07-25T15:59:14.571Z,32.10
2018-07-25T16:01:43.422Z,32.07
2018-07-25T16:04:12.060Z,32.08
2018-07-25T16:06:40.761Z,31.96
2018-07-25T16:09:10.521Z,32.02
2018-07-25T16:11:39.759Z,31.92
2018-07-25T16:14:08.592Z,31.65
2018-07-25T16:16:37.340Z,31.86
2018-07-25T16:19:06.480Z,31.82
2018-07-25T16:21:35.266Z,31.85
2018-07-25T16:24:04.081Z,31.71
2018-07-25T16:26:32.833Z,31.56
2018-07-25T16:29:03.358Z,31.50
2018-07-25T16:31:32.121Z,31.38
2018-07-25T16:34:00.791Z,31.41
2018-07-25T16:36:29.563Z,31.35
2018-07-25T16:38:58.220Z,31.33
2018-07-25T16:41:26.902Z,31.09
2018-07-25T16:43:55.784Z,30.97
2018-07-25T16:46:24.464Z,30.83
2018-07-25T16:48:53.256Z,30.84
2018-07-25T16:51:22.350Z,30.93
2018-07-25T16:53:51.073Z,30.92
2018-07-25T16:56:19.826Z,30.87
2018-07-25T16:58:48.554Z,30.82
2018-07-25T17:01:17.290Z,30.76
2018-07-25T17:03:46.027Z,30.62
2018-07-25T17:06:14.738Z,30.64
2018-07-25T17:08:43.430Z,30.50
2018-07-25T17:11:12.209Z,30.63
2018-07-25T17:13:40.937Z,30.56
2018-07-25T17:16:09.845Z,30.56
2018-07-25T17:18:38.588Z,30.64
2018-07-25T17:21:08.375Z,30.49
2018-07-25T17:23:37.097Z,30.52
2018-07-25T17:26:06.328Z,30.27
2018-07-25T17:28:35.591Z,30.19
2018-07-25T17:31:04.393Z,30.13
2018-07-25T17:33:33.103Z,30.11
2018-07-25T17:36:02.158Z,29.95
2018-07-25T17:38:30.909Z,29.93
2018-07-25T17:40:59.752Z,29.88
2018-07-25T17:43:28.402Z,29.83
2018-07-25T17:45:57.108Z,29.76
2018-07-25T17:48:25.897Z,29.61
2018-07-25T17:50:54.741Z,29.60
2018-07-25T17:53:23.617Z,29.64
2018-07-25T17:55:52.383Z,29.57
2018-07-25T17:58:21.210Z,29.61
2018-07-25T18:00:49.941Z,29.66
2018-07-25T18:03:18.710Z,29.60
2018-07-25T18:05:47.522Z,29.38
2018-07-25T18:08:16.241Z,29.31
2018-07-25T18:10:45.077Z,29.24
2018-07-25T18:13:19.098Z,29.22
2018-07-25T18:15:47.905Z,29.37
2018-07-25T18:18:16.641Z,29.19
2018-07-25T18:20:45.331Z,29.31
2018-07-25T18:23:14.024Z,29.12
2018-07-25T18:25:42.720Z,29.18
2018-07-25T18:28:11.639Z,29.23
2018-07-25T18:30:40.723Z,29.09
2018-07-25T18:33:09.442Z,29.02
2018-07-25T18:35:38.343Z,28.98
2018-07-25T18:38:07.085Z,28.97
2018-07-25T18:40:35.811Z,29.02
2018-07-25T18:43:04.560Z,29.08
2018-07-25T18:45:33.422Z,29.12
2018-07-25T18:48:02.277Z,29.05
2018-07-25T18:50:31.068Z,28.91
2018-07-25T18:53:00.395Z,28.31
2018-07-25T18:55:29.138Z,28.44
2018-07-25T18:57:57.889Z,28.48
2018-07-25T19:00:26.925Z,28.54
2018-07-25T19:02:55.692Z,28.59
2018-07-25T19:05:30.870Z,28.68
2018-07-25T19:08:00.925Z,28.68
2018-07-25T19:10:29.925Z,28.68
2018-07-25T19:12:59.831Z,28.68
2018-07-25T19:15:31.592Z,28.57
2018-07-25T19:18:00.979Z,28.48
2018-07-25T19:20:29.834Z,28.42
2018-07-25T19:22:58.660Z,28.29
2018-07-25T19:25:27.447Z,28.33
2018-07-25T19:27:56.180Z,28.33
2018-07-25T19:30:24.945Z,28.33
2018-07-25T19:32:53.804Z,28.20
2018-07-25T19:35:22.514Z,28.19
2018-07-25T19:37:51.279Z,28.12
2018-07-25T19:40:20.021Z,28.12
2018-07-25T19:42:48.769Z,28.03
2018-07-25T19:45:17.537Z,28.02
2018-07-25T19:47:46.227Z,27.99
2018-07-25T19:50:14.983Z,28.01
2018-07-25T19:52:43.823Z,27.88
2018-07-25T19:55:12.593Z,27.83
2018-07-25T19:57:41.279Z,27.78
2018-07-25T20:00:16.379Z,27.79
2018-07-25T20:02:39.182Z,27.76
2018-07-25T20:05:08.127Z,27.71
2018-07-25T20:07:36.913Z,27.61
2018-07-25T20:10:05.832Z,27.50
2018-07-25T20:12:34.573Z,27.50
2018-07-25T20:15:08.529Z,27.52
2018-07-25T20:17:37.313Z,27.52
2018-07-25T20:20:06.063Z,27.67
2018-07-25T20:22:34.812Z,27.61
2018-07-25T20:25:03.641Z,27.67
2018-07-25T20:27:32.340Z,27.75
2018-07-25T20:30:01.073Z,27.52
2018-07-25T20:32:29.799Z,27.44
2018-07-25T20:34:58.557Z,27.51
2018-07-25T20:37:27.346Z,27.67
2018-07-25T20:39:56.058Z,27.54
2018-07-25T20:42:24.941Z,27.50
2018-07-25T20:44:53.679Z,27.42
2018-07-25T20:47:23.224Z,27.45
2018-07-25T20:49:51.892Z,27.36
2018-07-25T20:52:20.602Z,27.28
2018-07-25T20:54:49.283Z,27.29
2018-07-25T20:57:18.018Z,27.25
2018-07-25T20:59:46.817Z,27.15
2018-07-25T21:02:15.554Z,27.00
2018-07-25T21:04:44.414Z,26.98
2018-07-25T21:07:13.232Z,27.01
2018-07-25T21:09:41.974Z,27.12
2018-07-25T21:12:10.812Z,26.75
2018-07-25T21:14:39.496Z,26.98
2018-07-25T21:17:08.256Z,26.96
2018-07-25T21:19:37.081Z,26.92
2018-07-25T21:22:06.186Z,26.90
2018-07-25T21:24:34.899Z,26.90
2018-07-25T21:27:03.659Z,26.82
2018-07-25T21:29:32.386Z,26.76
2018-07-25T21:32:01.287Z,26.58
2018-07-25T21:34:30.004Z,26.56
2018-07-25T21:36:58.840Z,26.42
2018-07-25T21:39:27.689Z,26.25
2018-07-25T21:41:56.810Z,26.21
2018-07-25T21:44:25.780Z,26.27
2018-07-25T21:46:55.127Z,26.25
2018-07-25T21:49:26.064Z,26.13
2018-07-25T21:51:54.910Z,26.12
2018-07-25T21:54:23.701Z,26.07
2018-07-25T21:56:52.595Z,26.10
2018-07-25T21:59:21.420Z,26.03
2018-07-25T22:01:50.441Z,25.98
2018-07-25T22:04:19.330Z,25.95
2018-07-25T22:06:48.333Z,25.73
2018-07-25T22:09:17.364Z,25.92
2018-07-25T22:11:46.182Z,25.93
2018-07-25T22:14:22.248Z,25.82
2018-07-25T22:16:51.381Z,25.80
2018-07-25T22:19:20.229Z,25.73
2018-07-25T22:21:49.020Z,25.65
2018-07-25T22:24:18.173Z,25.54
2018-07-25T22:26:47.078Z,25.48
2018-07-25T22:29:17.864Z,25.47
2018-07-25T22:31:48.093Z,25.53
2018-07-25T22:34:17.007Z,25.36
2018-07-25T22:36:46.178Z,25.20
2018-07-25T22:39:14.871Z,25.19
2018-07-25T22:41:43.931Z,25.04
2018-07-25T22:44:12.882Z,24.86
2018-07-25T22:46:41.658Z,24.64
2018-07-25T22:49:10.704Z,24.54
2018-07-25T22:51:39.755Z,24.50
2018-07-25T22:54:09.048Z,24.66
2018-07-25T22:56:38.194Z,24.75
2018-07-25T22:59:07.392Z,24.75
2018-07-25T23:01:36.596Z,24.68
2018-07-25T23:04:06.084Z,24.91
2018-07-25T23:06:35.560Z,25.04
2018-07-25T23:09:07.654Z,25.23
2018-07-25T23:11:36.984Z,25.22
2018-07-25T23:14:09.471Z,25.09
2018-07-25T23:16:38.545Z,25.08
2018-07-25T23:19:07.959Z,24.76
2018-07-25T23:21:37.406Z,24.57
2018-07-25T23:24:06.221Z,24.70
2018-07-25T23:26:36.279Z,24.51
2018-07-25T23:29:04.998Z,24.38
2018-07-25T23:31:33.848Z,24.64
2018-07-25T23:34:02.640Z,24.89
2018-07-25T23:36:31.368Z,25.17
2018-07-25T23:39:00.183Z,25.00
2018-07-25T23:41:28.928Z,25.16
2018-07-25T23:43:57.764Z,25.09
2018-07-25T23:46:26.452Z,25.07
2018-07-25T23:48:55.201Z,25.23
2018-07-25T23:51:24.028Z,25.19
2018-07-25T23:53:52.880Z,25.38
2018-07-25T23:56:21.675Z,25.08
2018-07-25T23:58:50.389Z,24.94
